createdAt,value
2017-08-16T00:02:15.503Z,20.47
2017-08-16T00:04:42.083Z,23.47
2017-08-16T00:07:09.138Z,20.10
2017-08-16T00:09:35.616Z,26.50
2017-08-16T00:12:02.114Z,25.63
2017-08-16T00:14:28.911Z,29.33
2017-08-16T00:16:55.401Z,30.37
2017-08-16T00:19:21.869Z,28.23
2017-08-16T00:21:48.310Z,32.67
2017-08-16T00:24:14.841Z,32.67
2017-08-16T00:26:41.660Z,33.70
2017-08-16T00:29:08.173Z,33.63
2017-08-16T00:31:34.680Z,40.47
2017-08-16T00:34:01.161Z,38.20
2017-08-16T00:36:27.650Z,37.73
2017-08-16T00:38:54.162Z,43.33
2017-08-16T00:41:20.703Z,44.53
2017-08-16T00:43:47.159Z,44.33
2017-08-16T00:46:13.711Z,40.57
2017-08-16T00:48:40.288Z,51.27
2017-08-16T00:51:06.878Z,49.63
2017-08-16T00:53:33.414Z,47.60
2017-08-16T00:55:59.989Z,48.37
2017-08-16T00:58:26.499Z,47.77
2017-08-16T01:00:52.973Z,47.10
2017-08-16T01:03:19.499Z,47.93
2017-08-16T01:05:45.920Z,45.30
2017-08-16T01:08:12.385Z,48.23
2017-08-16T01:10:38.866Z,51.17
2017-08-16T01:13:05.319Z,47.33
2017-08-16T01:15:31.731Z,48.63
2017-08-16T01:17:58.189Z,53.37
2017-08-16T01:20:24.675Z,49.13
2017-08-16T01:22:51.184Z,51.83
2017-08-16T01:25:17.635Z,45.67
2017-08-16T01:27:44.210Z,44.30
2017-08-16T01:30:10.716Z,48.83
2017-08-16T01:32:37.202Z,46.40
2017-08-16T01:35:03.671Z,49.03
2017-08-16T01:37:30.118Z,51.77
2017-08-16T01:39:56.651Z,49.60
2017-08-16T01:42:23.129Z,51.40
2017-08-16T01:44:49.642Z,48.67
2017-08-16T01:47:16.065Z,47.60
2017-08-16T01:49:42.576Z,51.77
2017-08-16T01:52:09.006Z,48.87
2017-08-16T01:54:35.578Z,56.23
2017-08-16T01:57:02.106Z,55.60
2017-08-16T01:59:28.824Z,47.67
2017-08-16T02:01:55.255Z,49.43
2017-08-16T02:04:21.749Z,51.83
2017-08-16T02:06:48.278Z,54.23
2017-08-16T02:09:14.778Z,52.03
2017-08-16T02:11:41.295Z,54.33
2017-08-16T02:14:07.791Z,56.43
2017-08-16T02:16:34.280Z,51.43
2017-08-16T02:19:01.167Z,50.60
2017-08-16T02:21:27.628Z,52.50
2017-08-16T02:23:54.128Z,55.30
2017-08-16T02:26:20.976Z,54.33
2017-08-16T02:28:47.679Z,48.17
2017-08-16T02:31:14.155Z,47.40
2017-08-16T02:33:40.670Z,45.27
2017-08-16T02:36:07.134Z,45.57
2017-08-16T02:38:33.624Z,44.60
2017-08-16T02:41:00.137Z,41.60
2017-08-16T02:43:26.635Z,46.60
2017-08-16T02:45:53.125Z,47.47
2017-08-16T02:48:19.807Z,44.97
2017-08-16T02:50:46.434Z,47.13
2017-08-16T02:53:12.952Z,44.07
2017-08-16T02:55:39.453Z,47.40
2017-08-16T02:58:06.008Z,46.37
2017-08-16T03:00:32.528Z,40.70
2017-08-16T03:02:59.048Z,38.77
2017-08-16T03:05:25.514Z,49.40
2017-08-16T03:07:52.066Z,44.47
2017-08-16T03:10:18.670Z,46.23
2017-08-16T03:12:45.211Z,41.40
2017-08-16T03:15:11.773Z,42.17
2017-08-16T03:17:38.375Z,43.97
2017-08-16T03:20:04.962Z,46.00
2017-08-16T03:22:31.542Z,41.97
2017-08-16T03:24:58.064Z,44.00
2017-08-16T03:27:24.629Z,41.90
2017-08-16T03:29:51.608Z,42.33
2017-08-16T03:32:18.172Z,44.50
2017-08-16T03:34:44.709Z,40.70
2017-08-16T03:37:11.204Z,37.87
2017-08-16T03:39:37.795Z,40.90
2017-08-16T03:42:04.383Z,44.43
2017-08-16T03:44:30.956Z,45.53
2017-08-16T03:46:57.513Z,49.50
2017-08-16T03:49:24.000Z,48.07
2017-08-16T03:51:50.482Z,42.43
2017-08-16T03:54:17.056Z,52.37
2017-08-16T03:56:43.579Z,54.13
2017-08-16T03:59:10.119Z,56.20
2017-08-16T04:01:36.651Z,50.73
2017-08-16T04:04:03.227Z,61.43
2017-08-16T04:06:29.805Z,52.90
2017-08-16T04:08:56.319Z,54.00
2017-08-16T04:11:22.919Z,48.33
2017-08-16T04:13:49.511Z,53.77
2017-08-16T04:16:16.049Z,57.43
2017-08-16T04:18:42.627Z,55.87
2017-08-16T04:21:09.195Z,58.13
2017-08-16T04:23:35.790Z,57.90
2017-08-16T04:26:02.355Z,54.17
2017-08-16T04:28:28.891Z,58.30
2017-08-16T04:30:55.500Z,53.73
2017-08-16T04:33:22.073Z,66.20
2017-08-16T04:35:49.015Z,62.10
2017-08-16T04:38:15.571Z,62.30
2017-08-16T04:40:42.130Z,60.50
2017-08-16T04:43:08.621Z,72.40
2017-08-16T04:45:35.206Z,74.30
2017-08-16T04:48:01.733Z,66.87
2017-08-16T04:50:28.272Z,67.57
2017-08-16T04:52:54.807Z,64.23
2017-08-16T04:55:21.390Z,69.03
2017-08-16T04:57:47.935Z,70.53
2017-08-16T05:00:14.513Z,68.30
2017-08-16T05:02:41.158Z,75.83
2017-08-16T05:05:08.701Z,69.13
2017-08-16T05:07:35.285Z,63.83
2017-08-16T05:10:01.810Z,67.30
2017-08-16T05:12:28.431Z,64.10
2017-08-16T05:14:55.030Z,63.13
2017-08-16T05:17:21.569Z,60.37
2017-08-16T05:19:48.210Z,62.57
2017-08-16T05:22:14.785Z,57.83
2017-08-16T05:24:41.347Z,69.90
2017-08-16T05:27:07.914Z,64.33
2017-08-16T05:29:35.518Z,67.60
2017-08-16T05:32:02.067Z,66.50
2017-08-16T05:34:41.499Z,57.77
2017-08-16T05:37:07.999Z,69.83
2017-08-16T05:39:35.396Z,60.97
2017-08-16T05:42:01.876Z,61.73
2017-08-16T05:44:28.312Z,57.30
2017-08-16T05:46:54.831Z,65.03
2017-08-16T05:49:21.871Z,66.70
2017-08-16T05:51:48.332Z,65.13
2017-08-16T05:54:14.832Z,69.40
2017-08-16T05:56:41.271Z,62.47
2017-08-16T05:59:07.686Z,61.30
2017-08-16T06:01:34.143Z,63.97
2017-08-16T06:04:00.861Z,71.70
2017-08-16T06:06:28.007Z,65.77
2017-08-16T06:08:54.510Z,61.00
2017-08-16T06:11:21.010Z,71.07
2017-08-16T06:13:47.463Z,60.27
2017-08-16T06:16:13.954Z,64.60
2017-08-16T06:18:40.371Z,68.13
2017-08-16T06:21:06.884Z,70.27
2017-08-16T06:23:33.421Z,70.37
2017-08-16T06:25:59.902Z,59.13
2017-08-16T06:28:26.416Z,64.77
2017-08-16T06:30:52.928Z,62.80
2017-08-16T06:33:19.391Z,68.93
2017-08-16T06:35:46.063Z,67.47
2017-08-16T06:38:12.563Z,53.17
2017-08-16T06:40:39.416Z,62.43
2017-08-16T06:43:06.145Z,61.03
2017-08-16T06:45:33.129Z,56.63
2017-08-16T06:47:59.658Z,62.27
2017-08-16T06:50:26.173Z,58.47
2017-08-16T06:52:52.660Z,56.60
2017-08-16T06:55:19.143Z,59.50
2017-08-16T06:57:47.115Z,51.37
2017-08-16T07:00:13.630Z,58.10
2017-08-16T07:02:40.059Z,57.50
2017-08-16T07:05:06.518Z,51.73
2017-08-16T07:07:33.002Z,51.40
2017-08-16T07:10:01.699Z,60.07
2017-08-16T07:12:34.750Z,52.10
2017-08-16T07:15:04.448Z,51.13
2017-08-16T07:17:30.999Z,55.37
2017-08-16T07:19:57.583Z,49.13
2017-08-16T07:22:24.215Z,47.60
2017-08-16T07:24:50.876Z,43.60
2017-08-16T07:27:17.515Z,45.33
2017-08-16T07:29:50.056Z,43.67
2017-08-16T07:32:16.839Z,44.83
2017-08-16T07:34:43.471Z,40.60
2017-08-16T07:37:10.034Z,39.47
2017-08-16T07:39:37.943Z,41.43
2017-08-16T07:42:11.567Z,37.07
2017-08-16T07:44:43.591Z,39.60
2017-08-16T07:47:10.428Z,39.33
2017-08-16T07:49:43.235Z,43.47
2017-08-16T07:52:09.851Z,41.03
2017-08-16T07:54:36.833Z,40.27
2017-08-16T07:57:10.749Z,36.40
2017-08-16T07:59:37.697Z,36.03
2017-08-16T08:02:06.822Z,35.77
2017-08-16T08:04:40.132Z,32.23
2017-08-16T08:07:07.684Z,34.30
2017-08-16T08:09:36.509Z,30.87
2017-08-16T08:12:03.517Z,32.10
2017-08-16T08:14:32.602Z,30.63
2017-08-16T08:17:00.782Z,30.50
2017-08-16T08:19:31.236Z,32.73
2017-08-16T08:22:00.480Z,29.83
2017-08-16T08:24:28.043Z,28.90
2017-08-16T08:26:56.222Z,23.47
2017-08-16T08:29:24.528Z,24.83
2017-08-16T08:31:51.769Z,31.63
2017-08-16T08:34:19.671Z,35.00
2017-08-16T08:36:47.624Z,36.53
2017-08-16T08:39:14.361Z,38.30
2017-08-16T08:41:45.917Z,36.50
2017-08-16T08:44:12.515Z,36.03
2017-08-16T08:46:39.040Z,35.13
2017-08-16T08:49:05.933Z,35.23
2017-08-16T08:51:33.165Z,33.07
2017-08-16T08:54:08.218Z,30.03
2017-08-16T08:56:40.080Z,28.83
2017-08-16T08:59:06.691Z,28.37
2017-08-16T09:01:33.269Z,28.77
2017-08-16T09:04:01.702Z,25.23
2017-08-16T09:06:28.538Z,22.87
2017-08-16T09:08:55.909Z,22.07
2017-08-16T09:11:22.522Z,22.10
2017-08-16T09:13:51.126Z,24.13
2017-08-16T09:16:23.811Z,23.90
2017-08-16T09:18:50.527Z,22.37
2017-08-16T09:21:22.498Z,22.00
2017-08-16T09:23:51.149Z,22.03
2017-08-16T09:26:18.513Z,22.30
2017-08-16T09:28:45.140Z,18.23
2017-08-16T09:31:11.734Z,18.90
2017-08-16T09:33:38.280Z,17.90
2017-08-16T09:36:04.969Z,15.87
2017-08-16T09:38:31.801Z,15.93
2017-08-16T09:40:58.807Z,16.37
2017-08-16T09:43:26.335Z,16.50
2017-08-16T09:45:52.956Z,15.23
2017-08-16T09:48:24.915Z,12.90
2017-08-16T09:50:51.461Z,15.17
2017-08-16T09:53:18.096Z,16.77
2017-08-16T09:55:44.881Z,15.50
2017-08-16T09:58:12.509Z,15.20
2017-08-16T10:00:39.287Z,17.40
2017-08-16T10:03:05.922Z,16.70
2017-08-16T10:05:32.480Z,18.93
2017-08-16T10:07:59.071Z,17.50
2017-08-16T10:10:25.687Z,17.30
2017-08-16T10:15:26.015Z,18.57
2017-08-16T10:17:52.625Z,17.50
2017-08-16T10:20:19.254Z,18.90
2017-08-16T10:22:45.862Z,19.97
2017-08-16T10:25:12.359Z,17.87
2017-08-16T10:27:38.871Z,17.83
2017-08-16T10:30:05.840Z,17.23
2017-08-16T10:32:32.314Z,15.60
2017-08-16T10:34:58.812Z,15.20
2017-08-16T10:37:25.315Z,15.03
2017-08-16T10:39:51.864Z,12.70
2017-08-16T10:42:18.494Z,13.70
2017-08-16T10:44:45.053Z,13.60
2017-08-16T10:47:11.666Z,13.40
2017-08-16T10:49:38.761Z,13.13
2017-08-16T10:52:05.388Z,12.67
2017-08-16T10:54:32.013Z,13.13
2017-08-16T10:57:02.772Z,14.03
2017-08-16T10:59:34.512Z,12.93
2017-08-16T11:02:01.347Z,13.57
2017-08-16T11:04:33.123Z,11.37
2017-08-16T11:06:59.742Z,12.83
2017-08-16T11:09:26.592Z,11.07
2017-08-16T11:11:53.291Z,10.07
2017-08-16T11:14:19.996Z,10.47
2017-08-16T11:16:52.806Z,11.40
2017-08-16T11:21:51.552Z,9.20
2017-08-16T11:24:22.150Z,9.70
2017-08-16T11:26:48.748Z,10.07
2017-08-16T11:29:15.370Z,9.77
2017-08-16T11:31:42.477Z,10.47
2017-08-16T11:34:09.185Z,10.17
2017-08-16T11:36:36.037Z,10.63
2017-08-16T11:39:02.742Z,8.60
2017-08-16T11:41:30.261Z,9.27
2017-08-16T11:43:57.024Z,12.80
2017-08-16T11:46:23.687Z,9.47
2017-08-16T11:48:50.436Z,10.07
2017-08-16T11:51:17.097Z,9.57
2017-08-16T11:53:43.716Z,10.70
2017-08-16T11:56:10.551Z,10.83
2017-08-16T11:58:37.256Z,9.37
2017-08-16T12:01:03.923Z,9.20
2017-08-16T12:03:31.308Z,9.17
2017-08-16T12:05:58.011Z,8.57
2017-08-16T12:08:24.668Z,8.93
2017-08-16T12:10:51.391Z,8.40
2017-08-16T12:13:20.049Z,10.13
2017-08-16T12:15:50.408Z,9.43
2017-08-16T12:18:17.557Z,8.90
2017-08-16T12:20:47.512Z,9.03
2017-08-16T12:23:18.846Z,8.47
2017-08-16T12:25:50.684Z,8.33
2017-08-16T12:28:17.951Z,8.20
2017-08-16T12:30:44.624Z,7.50
2017-08-16T12:33:12.482Z,8.43
2017-08-16T12:35:39.247Z,8.03
2017-08-16T12:38:06.295Z,9.13
2017-08-16T12:40:44.401Z,8.27
2017-08-16T12:43:12.239Z,8.80
2017-08-16T12:45:38.929Z,9.43
2017-08-16T12:48:05.591Z,8.60
2017-08-16T12:50:32.218Z,8.40
2017-08-16T12:52:58.869Z,9.07
2017-08-16T12:55:25.649Z,7.90
2017-08-16T12:57:58.603Z,8.63
2017-08-16T13:00:31.615Z,11.80
2017-08-16T13:02:58.247Z,8.10
2017-08-16T13:05:25.157Z,8.40
2017-08-16T13:07:51.957Z,7.90
2017-08-16T13:10:18.586Z,7.60
2017-08-16T13:12:45.279Z,8.00
2017-08-16T13:15:11.853Z,6.77
2017-08-16T13:17:38.502Z,6.73
2017-08-16T13:31:00.568Z,8.17
2017-08-16T13:33:39.401Z,6.73
2017-08-16T13:38:52.623Z,6.93
2017-08-16T13:41:24.265Z,6.63
2017-08-16T13:43:50.683Z,6.40
2017-08-16T13:46:17.064Z,7.57
2017-08-16T13:48:43.462Z,7.50
2017-08-16T13:51:09.837Z,6.87
2017-08-16T13:53:36.261Z,7.40
2017-08-16T13:56:02.691Z,7.10
2017-08-16T13:58:29.050Z,6.03
2017-08-16T14:00:55.444Z,6.53
2017-08-16T14:03:21.838Z,6.27
2017-08-16T14:05:48.228Z,6.30
2017-08-16T14:08:14.616Z,5.80
2017-08-16T14:10:40.992Z,5.93
2017-08-16T14:13:07.439Z,6.43
2017-08-16T14:15:33.884Z,5.90
2017-08-16T14:18:00.281Z,9.87
2017-08-16T14:20:26.679Z,5.73
2017-08-16T14:22:53.082Z,6.03
2017-08-16T14:25:19.476Z,5.83
2017-08-16T14:27:45.826Z,6.43
2017-08-16T14:30:12.192Z,6.33
2017-08-16T14:32:38.596Z,5.83
2017-08-16T14:35:04.983Z,5.80
2017-08-16T14:37:31.365Z,6.40
2017-08-16T14:39:57.789Z,6.10
2017-08-16T14:42:24.181Z,8.10
2017-08-16T14:44:50.573Z,6.07
2017-08-16T14:47:17.024Z,5.60
2017-08-16T14:49:43.408Z,5.63
2017-08-16T14:52:09.792Z,6.60
2017-08-16T14:54:36.207Z,5.83
2017-08-16T14:57:02.619Z,6.43
2017-08-16T14:59:29.031Z,5.00
2017-08-16T15:01:55.437Z,5.70
2017-08-16T15:04:21.847Z,5.10
2017-08-16T15:06:48.246Z,4.53
2017-08-16T15:09:14.640Z,6.67
2017-08-16T15:11:41.016Z,4.33
2017-08-16T15:14:07.404Z,5.10
2017-08-16T15:16:34.126Z,4.60
2017-08-16T15:19:00.560Z,5.10
2017-08-16T15:21:27.002Z,5.30
2017-08-16T15:23:53.468Z,4.83
2017-08-16T15:26:19.881Z,4.27
2017-08-16T15:28:46.287Z,5.30
2017-08-16T15:31:12.693Z,4.90
2017-08-16T15:33:39.077Z,5.17
2017-08-16T15:36:05.490Z,4.53
2017-08-16T15:38:31.925Z,4.53
2017-08-16T15:40:58.319Z,5.30
2017-08-16T15:43:24.696Z,5.03
2017-08-16T15:45:51.075Z,4.70
2017-08-16T15:48:17.484Z,4.77
2017-08-16T15:50:43.896Z,4.83
2017-08-16T15:53:10.329Z,4.30
2017-08-16T15:55:36.712Z,5.03
2017-08-16T15:58:03.086Z,4.40
2017-08-16T16:00:29.452Z,4.73
2017-08-16T16:02:55.834Z,4.40
2017-08-16T16:05:22.239Z,5.13
2017-08-16T16:07:48.646Z,4.50
2017-08-16T16:10:15.042Z,4.40
2017-08-16T16:12:41.424Z,5.10
2017-08-16T16:15:07.800Z,4.37
2017-08-16T16:17:34.268Z,4.57
2017-08-16T16:20:02.715Z,4.77
2017-08-16T16:22:29.590Z,5.00
2017-08-16T16:24:56.602Z,5.60
2017-08-16T16:27:23.125Z,4.50
2017-08-16T16:29:49.729Z,5.53
2017-08-16T16:32:16.176Z,4.60
2017-08-16T16:34:42.570Z,7.90
2017-08-16T16:37:08.945Z,10.20
2017-08-16T16:39:35.372Z,8.37
2017-08-16T16:42:01.759Z,15.10
2017-08-16T16:44:28.261Z,8.40
2017-08-16T16:46:54.659Z,7.97
2017-08-16T16:49:21.056Z,8.37
2017-08-16T16:51:47.425Z,10.43
2017-08-16T16:54:13.804Z,9.27
2017-08-16T16:56:40.548Z,9.17
2017-08-16T16:59:07.506Z,9.23
2017-08-16T17:01:34.499Z,9.33
2017-08-16T17:04:00.982Z,8.83
2017-08-16T17:06:27.827Z,9.20
2017-08-16T17:08:54.343Z,9.13
2017-08-16T17:11:20.742Z,10.00
2017-08-16T17:13:47.156Z,10.57
2017-08-16T17:16:13.608Z,9.60
2017-08-16T17:18:40.820Z,9.63
2017-08-16T17:21:07.331Z,8.47
2017-08-16T17:23:33.831Z,9.60
2017-08-16T17:26:00.281Z,11.27
2017-08-16T17:28:27.392Z,13.73
2017-08-16T17:30:54.167Z,11.70
2017-08-16T17:33:20.644Z,9.60
2017-08-16T17:35:47.023Z,8.73
2017-08-16T17:38:13.405Z,9.10
2017-08-16T17:40:40.706Z,8.90
2017-08-16T17:43:07.087Z,9.07
2017-08-16T17:45:33.504Z,8.50
2017-08-16T17:47:59.902Z,8.87
2017-08-16T17:50:26.314Z,8.77
2017-08-16T17:52:59.376Z,8.60
2017-08-16T18:11:41.076Z,26.33
2017-08-16T18:14:07.496Z,13.60
2017-08-16T18:16:33.872Z,8.63
2017-08-16T18:19:00.977Z,8.37
2017-08-16T18:21:29.035Z,9.47
2017-08-16T18:23:55.479Z,8.73
2017-08-16T18:26:22.365Z,9.27
2017-08-16T18:28:48.906Z,13.97
2017-08-16T18:31:15.386Z,9.77
2017-08-16T18:33:41.807Z,10.30
2017-08-16T18:36:08.217Z,8.70
2017-08-16T18:38:34.700Z,8.23
2017-08-16T18:41:01.560Z,8.83
2017-08-16T18:43:27.976Z,9.90
2017-08-16T18:45:55.644Z,9.00
2017-08-16T18:48:22.219Z,8.90
2017-08-16T18:50:49.209Z,8.93
2017-08-16T18:53:15.612Z,9.50
2017-08-16T18:55:42.066Z,9.13
2017-08-16T18:58:08.789Z,9.20
2017-08-16T19:00:35.237Z,10.00
2017-08-16T19:03:01.715Z,9.70
2017-08-16T19:05:28.129Z,10.33
2017-08-16T19:07:54.568Z,10.67
2017-08-16T19:10:21.625Z,10.27
2017-08-16T19:12:48.485Z,10.00
2017-08-16T19:15:14.977Z,9.70
2017-08-16T19:17:41.398Z,9.97
2017-08-16T19:20:08.116Z,9.87
2017-08-16T19:22:34.576Z,10.37
2017-08-16T19:25:01.049Z,11.33
2017-08-16T19:27:27.634Z,9.90
2017-08-16T19:29:55.217Z,10.33
2017-08-16T19:32:21.658Z,10.33
2017-08-16T19:34:48.802Z,11.80
2017-08-16T19:37:15.288Z,11.00
2017-08-16T19:39:41.689Z,10.23
2017-08-16T19:42:08.092Z,10.87
2017-08-16T19:44:34.530Z,10.00
2017-08-16T19:47:00.997Z,10.93
2017-08-16T19:49:27.393Z,10.43
2017-08-16T19:51:53.793Z,14.80
2017-08-16T19:54:20.182Z,11.63
2017-08-16T19:56:46.801Z,11.33
2017-08-16T19:59:13.187Z,11.23
2017-08-16T20:01:39.643Z,11.17
2017-08-16T20:04:06.044Z,9.77
2017-08-16T20:06:32.471Z,11.30
2017-08-16T20:08:58.869Z,11.17
2017-08-16T20:11:25.252Z,13.10
2017-08-16T20:13:51.636Z,10.87
2017-08-16T20:16:18.017Z,10.83
2017-08-16T20:18:44.420Z,13.53
2017-08-16T20:21:10.790Z,10.70
2017-08-16T20:23:37.633Z,12.30
2017-08-16T20:26:07.816Z,10.83
2017-08-16T20:28:34.325Z,10.23
2017-08-16T20:31:03.105Z,12.52
2017-08-16T20:33:29.621Z,12.50
2017-08-16T20:35:57.896Z,11.83
2017-08-16T20:38:25.762Z,11.30
2017-08-16T20:40:52.212Z,11.33
2017-08-16T20:43:20.421Z,12.27
2017-08-16T20:45:47.820Z,17.40
2017-08-16T20:48:14.346Z,14.87
2017-08-16T20:50:40.774Z,13.90
2017-08-16T20:53:08.224Z,13.53
2017-08-16T20:55:35.460Z,13.43
2017-08-16T20:58:01.897Z,11.43
2017-08-16T21:00:28.290Z,12.17
2017-08-16T21:02:54.634Z,15.40
2017-08-16T21:05:21.000Z,13.87
2017-08-16T21:07:47.469Z,12.90
2017-08-16T21:10:13.899Z,14.77
2017-08-16T21:12:41.334Z,14.90
2017-08-16T21:15:08.306Z,13.23
2017-08-16T21:17:34.732Z,14.40
2017-08-16T21:20:01.152Z,14.20
2017-08-16T21:22:27.572Z,14.20
2017-08-16T21:24:54.247Z,16.90
2017-08-16T21:27:20.670Z,15.73
2017-08-16T21:29:47.090Z,14.90
2017-08-16T21:32:13.509Z,15.03
2017-08-16T21:34:39.941Z,14.00
2017-08-16T21:37:06.535Z,15.83
2017-08-16T21:39:32.935Z,15.90
2017-08-16T21:41:59.345Z,13.33
2017-08-16T21:44:25.775Z,17.00
2017-08-16T21:46:52.178Z,17.67
2017-08-16T21:49:18.561Z,16.90
2017-08-16T21:51:44.959Z,16.67
2017-08-16T21:54:11.358Z,17.37
2017-08-16T21:56:37.757Z,16.73
2017-08-16T21:59:04.158Z,15.77
2017-08-16T22:01:30.552Z,12.63
2017-08-16T22:03:56.949Z,18.57
2017-08-16T22:06:23.357Z,16.13
2017-08-16T22:08:50.239Z,14.00
2017-08-16T22:11:16.701Z,14.27
2017-08-16T22:13:43.164Z,14.57
2017-08-16T22:16:09.613Z,15.17
2017-08-16T22:18:36.073Z,14.40
2017-08-16T22:21:02.463Z,17.13
2017-08-16T22:23:28.854Z,13.33
2017-08-16T22:25:55.210Z,17.07
2017-08-16T22:28:21.616Z,16.40
2017-08-16T22:30:48.008Z,16.10
2017-08-16T22:33:14.382Z,17.80
2017-08-16T22:35:40.760Z,15.90
2017-08-16T22:38:07.155Z,15.43
2017-08-16T22:40:33.592Z,15.90
2017-08-16T22:43:00.000Z,18.10
2017-08-16T22:45:26.375Z,17.67
2017-08-16T22:47:52.790Z,17.43
2017-08-16T22:50:19.160Z,20.00
2017-08-16T22:52:45.507Z,17.60
2017-08-16T22:55:11.884Z,17.10
2017-08-16T22:57:38.265Z,17.50
2017-08-16T23:00:04.689Z,15.27
2017-08-16T23:02:31.101Z,15.77
2017-08-16T23:04:57.473Z,15.87
2017-08-16T23:07:23.854Z,17.90
2017-08-16T23:09:50.250Z,22.50
2017-08-16T23:12:16.629Z,17.90
2017-08-16T23:14:43.027Z,16.40
2017-08-16T23:17:09.450Z,17.53
2017-08-16T23:19:35.837Z,16.40
2017-08-16T23:22:02.244Z,16.43
2017-08-16T23:24:28.660Z,15.47
2017-08-16T23:26:55.080Z,16.83
2017-08-16T23:29:21.476Z,16.50
2017-08-16T23:31:47.868Z,14.50
2017-08-16T23:34:14.268Z,15.23
2017-08-16T23:36:45.943Z,18.10
2017-08-16T23:39:12.486Z,15.33
2017-08-16T23:41:45.112Z,15.73
2017-08-16T23:44:11.791Z,15.33
2017-08-16T23:46:40.378Z,19.57
2017-08-16T23:49:07.778Z,14.73
2017-08-16T23:51:39.277Z,15.77
2017-08-16T23:54:10.835Z,15.47
2017-08-16T23:56:38.010Z,15.17
2017-08-16T23:59:04.358Z,15.97
